sensor_id;sensor_type;location;lat;lon;timestamp;P1;durP1;ratioP1;P2;durP2;ratioP2
55692;SDS011;41590;53.366;5.212;2022-10-22T00:01:25;12.70;;;6.10;;
55692;SDS011;41590;53.366;5.212;2022-10-22T00:03:53;16.80;;;6.93;;
55692;SDS011;41590;53.366;5.212;2022-10-22T00:06:19;10.95;;;5.88;;
55692;SDS011;41590;53.366;5.212;2022-10-22T00:08:46;14.73;;;6.72;;
55692;SDS011;41590;53.366;5.212;2022-10-22T00:11:12;15.60;;;7.00;;
55692;SDS011;41590;53.366;5.212;2022-10-22T00:13:40;13.38;;;6.35;;
55692;SDS011;41590;53.366;5.212;2022-10-22T00:16:06;13.77;;;6.93;;
55692;SDS011;41590;53.366;5.212;2022-10-22T00:18:32;14.18;;;6.80;;
55692;SDS011;41590;53.366;5.212;2022-10-22T00:20:58;15.45;;;7.13;;
55692;SDS011;41590;53.366;5.212;2022-10-22T00:23:24;15.82;;;7.70;;
55692;SDS011;41590;53.366;5.212;2022-10-22T00:25:53;14.00;;;7.07;;
55692;SDS011;41590;53.366;5.212;2022-10-22T00:28:21;20.13;;;7.55;;
55692;SDS011;41590;53.366;5.212;2022-10-22T00:31:02;14.10;;;6.80;;
55692;SDS011;41590;53.366;5.212;2022-10-22T00:33:29;17.20;;;6.72;;
55692;SDS011;41590;53.366;5.212;2022-10-22T00:35:55;9.48;;;6.45;;
55692;SDS011;41590;53.366;5.212;2022-10-22T00:38:21;10.93;;;6.57;;
55692;SDS011;41590;53.366;5.212;2022-10-22T00:40:48;15.60;;;7.70;;
55692;SDS011;41590;53.366;5.212;2022-10-22T00:43:15;15.27;;;7.55;;
55692;SDS011;41590;53.366;5.212;2022-10-22T00:45:49;19.27;;;7.65;;
55692;SDS011;41590;53.366;5.212;2022-10-22T00:48:19;11.98;;;8.23;;
55692;SDS011;41590;53.366;5.212;2022-10-22T00:53:28;13.02;;;7.43;;
55692;SDS011;41590;53.366;5.212;2022-10-22T00:56:00;15.80;;;7.00;;
55692;SDS011;41590;53.366;5.212;2022-10-22T00:58:28;12.32;;;6.88;;
55692;SDS011;41590;53.366;5.212;2022-10-22T01:00:57;12.27;;;7.20;;
55692;SDS011;41590;53.366;5.212;2022-10-22T01:03:24;13.77;;;7.35;;
55692;SDS011;41590;53.366;5.212;2022-10-22T01:05:54;13.80;;;6.90;;
55692;SDS011;41590;53.366;5.212;2022-10-22T01:08:27;14.55;;;6.93;;
55692;SDS011;41590;53.366;5.212;2022-10-22T01:22:35;12.85;;;6.90;;
55692;SDS011;41590;53.366;5.212;2022-10-22T01:28:34;15.80;;;8.13;;
55692;SDS011;41590;53.366;5.212;2022-10-22T01:31:12;17.92;;;7.78;;
55692;SDS011;41590;53.366;5.212;2022-10-22T01:33:41;12.73;;;7.72;;
55692;SDS011;41590;53.366;5.212;2022-10-22T01:36:11;14.32;;;7.28;;
55692;SDS011;41590;53.366;5.212;2022-10-22T01:38:39;17.63;;;7.82;;
55692;SDS011;41590;53.366;5.212;2022-10-22T01:41:07;12.32;;;8.57;;
55692;SDS011;41590;53.366;5.212;2022-10-22T01:43:35;14.50;;;8.93;;
55692;SDS011;41590;53.366;5.212;2022-10-22T01:46:01;13.63;;;8.95;;
55692;SDS011;41590;53.366;5.212;2022-10-22T01:48:39;13.25;;;9.35;;
55692;SDS011;41590;53.366;5.212;2022-10-22T01:57:07;16.05;;;8.63;;
55692;SDS011;41590;53.366;5.212;2022-10-22T01:59:58;16.63;;;8.38;;
55692;SDS011;41590;53.366;5.212;2022-10-22T02:02:36;18.20;;;8.02;;
55692;SDS011;41590;53.366;5.212;2022-10-22T02:05:15;16.60;;;8.63;;
55692;SDS011;41590;53.366;5.212;2022-10-22T02:07:53;16.60;;;8.35;;
55692;SDS011;41590;53.366;5.212;2022-10-22T02:10:24;14.02;;;7.22;;
55692;SDS011;41590;53.366;5.212;2022-10-22T02:12:53;12.25;;;7.65;;
55692;SDS011;41590;53.366;5.212;2022-10-22T02:15:27;17.73;;;7.20;;
55692;SDS011;41590;53.366;5.212;2022-10-22T02:17:55;17.02;;;6.97;;
55692;SDS011;41590;53.366;5.212;2022-10-22T02:20:28;16.23;;;6.00;;
55692;SDS011;41590;53.366;5.212;2022-10-22T02:22:59;15.00;;;6.45;;
55692;SDS011;41590;53.366;5.212;2022-10-22T02:25:31;12.32;;;6.22;;
55692;SDS011;41590;53.366;5.212;2022-10-22T02:30:59;11.27;;;5.78;;
55692;SDS011;41590;53.366;5.212;2022-10-22T02:33:34;11.75;;;5.15;;
55692;SDS011;41590;53.366;5.212;2022-10-22T02:36:05;10.80;;;5.45;;
55692;SDS011;41590;53.366;5.212;2022-10-22T02:38:32;12.68;;;5.95;;
55692;SDS011;41590;53.366;5.212;2022-10-22T02:40:59;9.93;;;5.10;;
55692;SDS011;41590;53.366;5.212;2022-10-22T02:43:27;10.43;;;5.22;;
55692;SDS011;41590;53.366;5.212;2022-10-22T02:45:53;14.98;;;5.15;;
55692;SDS011;41590;53.366;5.212;2022-10-22T02:48:19;9.88;;;5.18;;
55692;SDS011;41590;53.366;5.212;2022-10-22T02:50:45;12.35;;;4.90;;
55692;SDS011;41590;53.366;5.212;2022-10-22T02:53:11;15.27;;;5.30;;
55692;SDS011;41590;53.366;5.212;2022-10-22T02:55:37;15.73;;;4.90;;
55692;SDS011;41590;53.366;5.212;2022-10-22T02:58:04;9.80;;;4.63;;
55692;SDS011;41590;53.366;5.212;2022-10-22T03:00:30;10.27;;;4.55;;
55692;SDS011;41590;53.366;5.212;2022-10-22T03:02:55;11.30;;;4.72;;
55692;SDS011;41590;53.366;5.212;2022-10-22T03:05:21;11.68;;;4.45;;
55692;SDS011;41590;53.366;5.212;2022-10-22T03:07:49;14.27;;;4.88;;
55692;SDS011;41590;53.366;5.212;2022-10-22T03:10:14;12.45;;;4.50;;
55692;SDS011;41590;53.366;5.212;2022-10-22T03:12:41;13.07;;;4.53;;
55692;SDS011;41590;53.366;5.212;2022-10-22T03:15:08;15.57;;;4.70;;
55692;SDS011;41590;53.366;5.212;2022-10-22T03:17:34;13.50;;;4.22;;
55692;SDS011;41590;53.366;5.212;2022-10-22T03:20:00;11.57;;;4.47;;
55692;SDS011;41590;53.366;5.212;2022-10-22T03:22:28;10.68;;;4.32;;
55692;SDS011;41590;53.366;5.212;2022-10-22T03:24:59;14.93;;;4.35;;
55692;SDS011;41590;53.366;5.212;2022-10-22T03:27:29;11.25;;;4.70;;
55692;SDS011;41590;53.366;5.212;2022-10-22T03:29:55;12.05;;;5.15;;
55692;SDS011;41590;53.366;5.212;2022-10-22T03:32:21;11.52;;;3.75;;
55692;SDS011;41590;53.366;5.212;2022-10-22T03:34:47;10.95;;;4.25;;
55692;SDS011;41590;53.366;5.212;2022-10-22T03:37:12;11.48;;;4.38;;
55692;SDS011;41590;53.366;5.212;2022-10-22T03:39:40;13.75;;;4.65;;
55692;SDS011;41590;53.366;5.212;2022-10-22T03:42:07;8.88;;;3.65;;
55692;SDS011;41590;53.366;5.212;2022-10-22T03:44:35;10.93;;;3.85;;
55692;SDS011;41590;53.366;5.212;2022-10-22T03:47:03;11.55;;;3.30;;
55692;SDS011;41590;53.366;5.212;2022-10-22T03:49:39;11.13;;;3.25;;
55692;SDS011;41590;53.366;5.212;2022-10-22T03:52:05;15.30;;;4.50;;
55692;SDS011;41590;53.366;5.212;2022-10-22T03:54:32;12.82;;;3.47;;
55692;SDS011;41590;53.366;5.212;2022-10-22T03:56:59;12.73;;;4.10;;
55692;SDS011;41590;53.366;5.212;2022-10-22T03:59:26;11.20;;;3.28;;
55692;SDS011;41590;53.366;5.212;2022-10-22T04:01:52;7.93;;;3.15;;
55692;SDS011;41590;53.366;5.212;2022-10-22T04:04:20;15.75;;;3.58;;
55692;SDS011;41590;53.366;5.212;2022-10-22T04:06:48;14.82;;;3.35;;
55692;SDS011;41590;53.366;5.212;2022-10-22T04:09:14;11.60;;;3.45;;
55692;SDS011;41590;53.366;5.212;2022-10-22T04:11:39;12.77;;;3.53;;
55692;SDS011;41590;53.366;5.212;2022-10-22T04:14:06;12.10;;;3.85;;
55692;SDS011;41590;53.366;5.212;2022-10-22T04:16:33;11.27;;;3.40;;
55692;SDS011;41590;53.366;5.212;2022-10-22T04:19:02;10.13;;;3.40;;
55692;SDS011;41590;53.366;5.212;2022-10-22T04:21:32;9.90;;;3.28;;
55692;SDS011;41590;53.366;5.212;2022-10-22T04:23:58;13.18;;;3.45;;
55692;SDS011;41590;53.366;5.212;2022-10-22T04:26:24;16.23;;;3.38;;
55692;SDS011;41590;53.366;5.212;2022-10-22T04:28:52;9.80;;;3.40;;
55692;SDS011;41590;53.366;5.212;2022-10-22T04:31:22;13.68;;;3.88;;
55692;SDS011;41590;53.366;5.212;2022-10-22T04:33:53;15.43;;;3.53;;
55692;SDS011;41590;53.366;5.212;2022-10-22T04:36:22;12.73;;;3.55;;
55692;SDS011;41590;53.366;5.212;2022-10-22T04:38:54;9.07;;;3.78;;
55692;SDS011;41590;53.366;5.212;2022-10-22T04:41:24;10.50;;;3.20;;
55692;SDS011;41590;53.366;5.212;2022-10-22T04:43:52;9.20;;;3.33;;
55692;SDS011;41590;53.366;5.212;2022-10-22T04:46:21;14.50;;;3.53;;
55692;SDS011;41590;53.366;5.212;2022-10-22T04:48:50;13.25;;;3.45;;
55692;SDS011;41590;53.366;5.212;2022-10-22T04:51:17;10.18;;;3.40;;
55692;SDS011;41590;53.366;5.212;2022-10-22T04:53:45;8.60;;;3.45;;
55692;SDS011;41590;53.366;5.212;2022-10-22T04:56:18;10.20;;;3.20;;
55692;SDS011;41590;53.366;5.212;2022-10-22T05:05:14;10.55;;;3.40;;
55692;SDS011;41590;53.366;5.212;2022-10-22T05:07:49;14.35;;;4.43;;
55692;SDS011;41590;53.366;5.212;2022-10-22T05:10:15;11.60;;;3.95;;
55692;SDS011;41590;53.366;5.212;2022-10-22T05:12:41;10.43;;;3.47;;
55692;SDS011;41590;53.366;5.212;2022-10-22T05:15:07;12.55;;;3.60;;
55692;SDS011;41590;53.366;5.212;2022-10-22T05:17:36;13.27;;;3.30;;
55692;SDS011;41590;53.366;5.212;2022-10-22T05:20:03;16.85;;;4.22;;
55692;SDS011;41590;53.366;5.212;2022-10-22T05:22:30;22.80;;;4.90;;
55692;SDS011;41590;53.366;5.212;2022-10-22T05:24:57;18.23;;;4.30;;
55692;SDS011;41590;53.366;5.212;2022-10-22T05:27:22;13.13;;;3.45;;
55692;SDS011;41590;53.366;5.212;2022-10-22T05:29:51;16.58;;;3.97;;
55692;SDS011;41590;53.366;5.212;2022-10-22T05:32:17;14.90;;;3.42;;
55692;SDS011;41590;53.366;5.212;2022-10-22T05:34:43;6.15;;;2.95;;
55692;SDS011;41590;53.366;5.212;2022-10-22T05:37:09;11.55;;;3.78;;
55692;SDS011;41590;53.366;5.212;2022-10-22T05:39:37;14.07;;;3.63;;
55692;SDS011;41590;53.366;5.212;2022-10-22T05:42:05;16.25;;;4.10;;
55692;SDS011;41590;53.366;5.212;2022-10-22T05:44:32;16.98;;;4.25;;
55692;SDS011;41590;53.366;5.212;2022-10-22T05:46:58;11.70;;;3.30;;
55692;SDS011;41590;53.366;5.212;2022-10-22T05:49:25;13.05;;;3.58;;
55692;SDS011;41590;53.366;5.212;2022-10-22T05:51:50;15.68;;;4.38;;
55692;SDS011;41590;53.366;5.212;2022-10-22T05:54:17;14.07;;;4.32;;
55692;SDS011;41590;53.366;5.212;2022-10-22T05:56:44;14.95;;;5.07;;
55692;SDS011;41590;53.366;5.212;2022-10-22T05:59:11;14.55;;;4.28;;
55692;SDS011;41590;53.366;5.212;2022-10-22T06:01:38;17.27;;;4.10;;
55692;SDS011;41590;53.366;5.212;2022-10-22T06:04:07;13.57;;;3.78;;
55692;SDS011;41590;53.366;5.212;2022-10-22T06:06:36;15.35;;;3.78;;
55692;SDS011;41590;53.366;5.212;2022-10-22T06:09:17;16.13;;;3.97;;
55692;SDS011;41590;53.366;5.212;2022-10-22T06:11:47;17.77;;;3.88;;
55692;SDS011;41590;53.366;5.212;2022-10-22T06:14:16;14.02;;;3.42;;
55692;SDS011;41590;53.366;5.212;2022-10-22T06:16:42;17.75;;;4.30;;
55692;SDS011;41590;53.366;5.212;2022-10-22T06:19:13;15.60;;;4.45;;
55692;SDS011;41590;53.366;5.212;2022-10-22T06:21:41;13.30;;;3.80;;
55692;SDS011;41590;53.366;5.212;2022-10-22T06:24:10;15.65;;;4.43;;
55692;SDS011;41590;53.366;5.212;2022-10-22T06:26:38;11.93;;;4.25;;
55692;SDS011;41590;53.366;5.212;2022-10-22T06:29:05;19.65;;;4.30;;
55692;SDS011;41590;53.366;5.212;2022-10-22T06:31:31;19.67;;;4.40;;
55692;SDS011;41590;53.366;5.212;2022-10-22T06:34:06;12.02;;;3.58;;
55692;SDS011;41590;53.366;5.212;2022-10-22T06:36:35;17.55;;;4.22;;
55692;SDS011;41590;53.366;5.212;2022-10-22T06:39:02;15.57;;;4.38;;
55692;SDS011;41590;53.366;5.212;2022-10-22T06:43:58;14.15;;;3.92;;
55692;SDS011;41590;53.366;5.212;2022-10-22T06:46:25;16.77;;;4.35;;
55692;SDS011;41590;53.366;5.212;2022-10-22T06:48:52;13.40;;;4.28;;
55692;SDS011;41590;53.366;5.212;2022-10-22T06:51:21;13.23;;;4.10;;
55692;SDS011;41590;53.366;5.212;2022-10-22T06:53:48;15.95;;;4.00;;
55692;SDS011;41590;53.366;5.212;2022-10-22T06:56:15;18.75;;;4.60;;
55692;SDS011;41590;53.366;5.212;2022-10-22T06:58:47;14.85;;;4.85;;
55692;SDS011;41590;53.366;5.212;2022-10-22T07:01:19;16.85;;;3.90;;
55692;SDS011;41590;53.366;5.212;2022-10-22T07:03:50;15.30;;;4.45;;
55692;SDS011;41590;53.366;5.212;2022-10-22T07:06:17;16.20;;;3.90;;
55692;SDS011;41590;53.366;5.212;2022-10-22T07:08:44;15.93;;;4.25;;
55692;SDS011;41590;53.366;5.212;2022-10-22T07:13:41;17.58;;;5.97;;
55692;SDS011;41590;53.366;5.212;2022-10-22T07:16:09;17.60;;;4.82;;
55692;SDS011;41590;53.366;5.212;2022-10-22T07:18:35;16.50;;;5.43;;
55692;SDS011;41590;53.366;5.212;2022-10-22T07:21:02;12.45;;;4.40;;
55692;SDS011;41590;53.366;5.212;2022-10-22T07:23:32;19.58;;;4.80;;
55692;SDS011;41590;53.366;5.212;2022-10-22T07:28:29;17.55;;;4.43;;
55692;SDS011;41590;53.366;5.212;2022-10-22T07:33:27;19.40;;;6.07;;
55692;SDS011;41590;53.366;5.212;2022-10-22T07:35:57;21.88;;;5.63;;
55692;SDS011;41590;53.366;5.212;2022-10-22T07:38:24;16.80;;;4.47;;
55692;SDS011;41590;53.366;5.212;2022-10-22T07:40:50;12.55;;;4.75;;
55692;SDS011;41590;53.366;5.212;2022-10-22T07:43:16;19.30;;;4.60;;
55692;SDS011;41590;53.366;5.212;2022-10-22T07:45:41;16.33;;;4.18;;
55692;SDS011;41590;53.366;5.212;2022-10-22T07:48:09;14.15;;;4.07;;
55692;SDS011;41590;53.366;5.212;2022-10-22T07:50:35;15.85;;;4.75;;
55692;SDS011;41590;53.366;5.212;2022-10-22T07:53:02;14.05;;;4.25;;
55692;SDS011;41590;53.366;5.212;2022-10-22T07:55:27;13.45;;;4.40;;
55692;SDS011;41590;53.366;5.212;2022-10-22T07:57:53;16.27;;;4.45;;
55692;SDS011;41590;53.366;5.212;2022-10-22T08:00:20;15.35;;;3.83;;
55692;SDS011;41590;53.366;5.212;2022-10-22T08:02:47;18.45;;;3.55;;
55692;SDS011;41590;53.366;5.212;2022-10-22T08:05:13;11.18;;;3.65;;
55692;SDS011;41590;53.366;5.212;2022-10-22T08:07:39;14.00;;;4.15;;
55692;SDS011;41590;53.366;5.212;2022-10-22T08:10:05;12.75;;;3.88;;
55692;SDS011;41590;53.366;5.212;2022-10-22T08:12:32;18.10;;;4.47;;
55692;SDS011;41590;53.366;5.212;2022-10-22T08:14:58;16.40;;;3.97;;
55692;SDS011;41590;53.366;5.212;2022-10-22T08:17:28;14.27;;;4.50;;
55692;SDS011;41590;53.366;5.212;2022-10-22T08:19:54;16.88;;;4.30;;
55692;SDS011;41590;53.366;5.212;2022-10-22T08:22:21;15.80;;;3.75;;
55692;SDS011;41590;53.366;5.212;2022-10-22T08:24:47;17.23;;;3.92;;
55692;SDS011;41590;53.366;5.212;2022-10-22T08:27:31;17.55;;;4.20;;
55692;SDS011;41590;53.366;5.212;2022-10-22T08:32:33;16.45;;;3.63;;
55692;SDS011;41590;53.366;5.212;2022-10-22T08:37:30;16.73;;;4.43;;
55692;SDS011;41590;53.366;5.212;2022-10-22T08:40:08;17.17;;;4.00;;
55692;SDS011;41590;53.366;5.212;2022-10-22T08:42:58;14.30;;;4.28;;
55692;SDS011;41590;53.366;5.212;2022-10-22T08:45:46;18.90;;;3.97;;
55692;SDS011;41590;53.366;5.212;2022-10-22T08:51:39;19.30;;;4.18;;
55692;SDS011;41590;53.366;5.212;2022-10-22T08:56:30;14.05;;;4.00;;
55692;SDS011;41590;53.366;5.212;2022-10-22T08:59:00;18.13;;;4.13;;
55692;SDS011;41590;53.366;5.212;2022-10-22T09:01:37;16.15;;;4.28;;
55692;SDS011;41590;53.366;5.212;2022-10-22T09:06:57;25.25;;;4.13;;
55692;SDS011;41590;53.366;5.212;2022-10-22T09:09:26;16.88;;;4.03;;
55692;SDS011;41590;53.366;5.212;2022-10-22T09:11:57;22.52;;;4.78;;
55692;SDS011;41590;53.366;5.212;2022-10-22T09:14:31;22.42;;;4.90;;
55692;SDS011;41590;53.366;5.212;2022-10-22T09:22:52;23.45;;;4.50;;
55692;SDS011;41590;53.366;5.212;2022-10-22T09:25:27;16.75;;;3.70;;
55692;SDS011;41590;53.366;5.212;2022-10-22T09:27:55;18.45;;;4.22;;
55692;SDS011;41590;53.366;5.212;2022-10-22T09:30:25;17.38;;;4.35;;
55692;SDS011;41590;53.366;5.212;2022-10-22T09:35:59;20.35;;;4.50;;
55692;SDS011;41590;53.366;5.212;2022-10-22T09:38:32;20.33;;;4.65;;
55692;SDS011;41590;53.366;5.212;2022-10-22T09:41:03;21.67;;;5.18;;
55692;SDS011;41590;53.366;5.212;2022-10-22T09:43:29;20.20;;;4.30;;
55692;SDS011;41590;53.366;5.212;2022-10-22T09:46:06;25.55;;;4.05;;
55692;SDS011;41590;53.366;5.212;2022-10-22T09:48:38;26.13;;;4.38;;
55692;SDS011;41590;53.366;5.212;2022-10-22T09:53:46;21.83;;;3.63;;
55692;SDS011;41590;53.366;5.212;2022-10-22T09:56:27;15.70;;;3.40;;
55692;SDS011;41590;53.366;5.212;2022-10-22T09:58:59;15.45;;;3.10;;
55692;SDS011;41590;53.366;5.212;2022-10-22T10:01:27;11.38;;;2.08;;
55692;SDS011;41590;53.366;5.212;2022-10-22T10:04:02;13.05;;;2.47;;
55692;SDS011;41590;53.366;5.212;2022-10-22T10:06:30;14.77;;;3.20;;
55692;SDS011;41590;53.366;5.212;2022-10-22T10:08:58;16.40;;;2.92;;
55692;SDS011;41590;53.366;5.212;2022-10-22T10:11:35;19.33;;;2.92;;
55692;SDS011;41590;53.366;5.212;2022-10-22T10:14:13;18.23;;;2.38;;
55692;SDS011;41590;53.366;5.212;2022-10-22T10:28:00;25.15;;;5.28;;
55692;SDS011;41590;53.366;5.212;2022-10-22T10:30:41;17.08;;;4.25;;
55692;SDS011;41590;53.366;5.212;2022-10-22T10:33:22;18.33;;;4.35;;
55692;SDS011;41590;53.366;5.212;2022-10-22T10:39:11;16.10;;;3.42;;
55692;SDS011;41590;53.366;5.212;2022-10-22T10:50:17;17.42;;;3.17;;
55692;SDS011;41590;53.366;5.212;2022-10-22T11:01:33;22.77;;;3.08;;
55692;SDS011;41590;53.366;5.212;2022-10-22T11:07:49;23.35;;;3.08;;
55692;SDS011;41590;53.366;5.212;2022-10-22T11:10:40;20.20;;;3.20;;
55692;SDS011;41590;53.366;5.212;2022-10-22T11:18:58;16.65;;;2.70;;
55692;SDS011;41590;53.366;5.212;2022-10-22T11:22:20;23.40;;;3.13;;
55692;SDS011;41590;53.366;5.212;2022-10-22T11:25:04;21.92;;;3.08;;
55692;SDS011;41590;53.366;5.212;2022-10-22T11:27:50;22.27;;;3.00;;
55692;SDS011;41590;53.366;5.212;2022-10-22T11:30:20;23.20;;;3.58;;
55692;SDS011;41590;53.366;5.212;2022-10-22T11:32:55;19.00;;;2.85;;
55692;SDS011;41590;53.366;5.212;2022-10-22T11:35:29;21.02;;;3.58;;
55692;SDS011;41590;53.366;5.212;2022-10-22T11:38:00;24.10;;;3.63;;
55692;SDS011;41590;53.366;5.212;2022-10-22T11:40:43;22.67;;;3.22;;
55692;SDS011;41590;53.366;5.212;2022-10-22T11:43:30;23.27;;;3.45;;
55692;SDS011;41590;53.366;5.212;2022-10-22T11:51:44;23.27;;;3.13;;
55692;SDS011;41590;53.366;5.212;2022-10-22T12:10:28;26.88;;;4.03;;
55692;SDS011;41590;53.366;5.212;2022-10-22T12:13:11;22.67;;;2.88;;
55692;SDS011;41590;53.366;5.212;2022-10-22T12:18:17;21.15;;;3.53;;
55692;SDS011;41590;53.366;5.212;2022-10-22T12:20:48;15.82;;;2.40;;
55692;SDS011;41590;53.366;5.212;2022-10-22T12:23:23;16.35;;;2.83;;
55692;SDS011;41590;53.366;5.212;2022-10-22T12:25:56;23.38;;;2.70;;
55692;SDS011;41590;53.366;5.212;2022-10-22T12:28:22;15.55;;;2.50;;
55692;SDS011;41590;53.366;5.212;2022-10-22T12:30:48;16.83;;;3.15;;
55692;SDS011;41590;53.366;5.212;2022-10-22T12:33:18;13.82;;;2.05;;
55692;SDS011;41590;53.366;5.212;2022-10-22T12:35:48;21.48;;;2.97;;
55692;SDS011;41590;53.366;5.212;2022-10-22T12:38:19;16.45;;;2.05;;
55692;SDS011;41590;53.366;5.212;2022-10-22T12:40:49;16.50;;;2.28;;
55692;SDS011;41590;53.366;5.212;2022-10-22T12:43:18;16.38;;;1.98;;
55692;SDS011;41590;53.366;5.212;2022-10-22T12:45:49;17.80;;;2.53;;
55692;SDS011;41590;53.366;5.212;2022-10-22T12:48:17;16.92;;;1.85;;
55692;SDS011;41590;53.366;5.212;2022-10-22T12:50:48;12.45;;;1.98;;
55692;SDS011;41590;53.366;5.212;2022-10-22T12:55:51;13.50;;;2.15;;
55692;SDS011;41590;53.366;5.212;2022-10-22T12:58:20;10.75;;;1.83;;
55692;SDS011;41590;53.366;5.212;2022-10-22T13:00:55;15.45;;;2.35;;
55692;SDS011;41590;53.366;5.212;2022-10-22T13:03:27;14.05;;;2.03;;
55692;SDS011;41590;53.366;5.212;2022-10-22T13:05:56;14.65;;;1.85;;
55692;SDS011;41590;53.366;5.212;2022-10-22T13:08:36;10.40;;;1.48;;
55692;SDS011;41590;53.366;5.212;2022-10-22T13:11:08;15.40;;;2.15;;
55692;SDS011;41590;53.366;5.212;2022-10-22T13:13:41;9.48;;;1.55;;
55692;SDS011;41590;53.366;5.212;2022-10-22T13:16:22;11.23;;;1.52;;
55692;SDS011;41590;53.366;5.212;2022-10-22T13:18:52;14.65;;;1.80;;
55692;SDS011;41590;53.366;5.212;2022-10-22T13:23:51;19.52;;;2.50;;
55692;SDS011;41590;53.366;5.212;2022-10-22T13:26:19;17.40;;;1.92;;
55692;SDS011;41590;53.366;5.212;2022-10-22T13:28:48;17.73;;;2.88;;
55692;SDS011;41590;53.366;5.212;2022-10-22T13:33:56;16.90;;;2.58;;
55692;SDS011;41590;53.366;5.212;2022-10-22T13:36:29;15.60;;;2.22;;
55692;SDS011;41590;53.366;5.212;2022-10-22T13:39:05;10.90;;;1.60;;
55692;SDS011;41590;53.366;5.212;2022-10-22T13:41:40;11.48;;;2.22;;
55692;SDS011;41590;53.366;5.212;2022-10-22T13:44:08;16.50;;;2.33;;
55692;SDS011;41590;53.366;5.212;2022-10-22T13:46:40;10.38;;;1.98;;
55692;SDS011;41590;53.366;5.212;2022-10-22T13:49:19;11.38;;;2.85;;
55692;SDS011;41590;53.366;5.212;2022-10-22T13:51:47;13.32;;;2.17;;
55692;SDS011;41590;53.366;5.212;2022-10-22T13:54:16;15.55;;;3.35;;
55692;SDS011;41590;53.366;5.212;2022-10-22T13:59:15;14.73;;;2.38;;
55692;SDS011;41590;53.366;5.212;2022-10-22T14:01:42;12.35;;;2.53;;
55692;SDS011;41590;53.366;5.212;2022-10-22T14:04:09;14.00;;;2.35;;
55692;SDS011;41590;53.366;5.212;2022-10-22T14:06:39;15.68;;;2.30;;
55692;SDS011;41590;53.366;5.212;2022-10-22T14:09:06;14.25;;;2.30;;
55692;SDS011;41590;53.366;5.212;2022-10-22T14:11:37;15.35;;;2.65;;
55692;SDS011;41590;53.366;5.212;2022-10-22T14:14:04;15.20;;;2.80;;
55692;SDS011;41590;53.366;5.212;2022-10-22T14:16:33;14.80;;;2.60;;
55692;SDS011;41590;53.366;5.212;2022-10-22T14:19:02;18.65;;;2.63;;
55692;SDS011;41590;53.366;5.212;2022-10-22T14:21:45;19.50;;;2.50;;
55692;SDS011;41590;53.366;5.212;2022-10-22T14:24:15;20.35;;;3.45;;
55692;SDS011;41590;53.366;5.212;2022-10-22T14:26:46;14.77;;;2.33;;
55692;SDS011;41590;53.366;5.212;2022-10-22T14:29:12;16.23;;;2.95;;
55692;SDS011;41590;53.366;5.212;2022-10-22T14:34:52;19.33;;;2.92;;
55692;SDS011;41590;53.366;5.212;2022-10-22T14:37:29;14.57;;;2.67;;
55692;SDS011;41590;53.366;5.212;2022-10-22T14:40:00;20.83;;;3.20;;
55692;SDS011;41590;53.366;5.212;2022-10-22T14:42:27;31.13;;;3.88;;
55692;SDS011;41590;53.366;5.212;2022-10-22T14:49:53;17.83;;;3.05;;
55692;SDS011;41590;53.366;5.212;2022-10-22T14:57:42;22.58;;;3.55;;
55692;SDS011;41590;53.366;5.212;2022-10-22T15:06:52;24.85;;;3.85;;
55692;SDS011;41590;53.366;5.212;2022-10-22T15:09:21;24.55;;;2.95;;
55692;SDS011;41590;53.366;5.212;2022-10-22T15:14:51;25.05;;;3.70;;
55692;SDS011;41590;53.366;5.212;2022-10-22T15:17:19;27.30;;;4.07;;
55692;SDS011;41590;53.366;5.212;2022-10-22T15:19:48;21.55;;;3.60;;
55692;SDS011;41590;53.366;5.212;2022-10-22T15:22:14;36.45;;;3.97;;
55692;SDS011;41590;53.366;5.212;2022-10-22T15:24:44;22.77;;;2.75;;
55692;SDS011;41590;53.366;5.212;2022-10-22T15:27:20;25.83;;;3.95;;
55692;SDS011;41590;53.366;5.212;2022-10-22T15:32:17;32.88;;;4.43;;
55692;SDS011;41590;53.366;5.212;2022-10-22T15:35:00;26.45;;;3.45;;
55692;SDS011;41590;53.366;5.212;2022-10-22T15:37:26;26.45;;;3.13;;
55692;SDS011;41590;53.366;5.212;2022-10-22T15:39:52;30.52;;;3.33;;
55692;SDS011;41590;53.366;5.212;2022-10-22T15:42:17;28.98;;;4.35;;
55692;SDS011;41590;53.366;5.212;2022-10-22T15:44:56;27.23;;;3.30;;
55692;SDS011;41590;53.366;5.212;2022-10-22T15:47:25;23.15;;;2.90;;
55692;SDS011;41590;53.366;5.212;2022-10-22T15:55:08;36.15;;;3.60;;
55692;SDS011;41590;53.366;5.212;2022-10-22T15:57:35;27.83;;;3.70;;
55692;SDS011;41590;53.366;5.212;2022-10-22T16:00:03;29.88;;;2.97;;
55692;SDS011;41590;53.366;5.212;2022-10-22T16:02:32;23.75;;;3.85;;
55692;SDS011;41590;53.366;5.212;2022-10-22T16:04:58;28.60;;;3.65;;
55692;SDS011;41590;53.366;5.212;2022-10-22T16:07:28;23.35;;;3.20;;
55692;SDS011;41590;53.366;5.212;2022-10-22T16:10:00;23.10;;;3.45;;
55692;SDS011;41590;53.366;5.212;2022-10-22T16:12:25;28.50;;;3.08;;
55692;SDS011;41590;53.366;5.212;2022-10-22T16:14:52;20.77;;;3.55;;
55692;SDS011;41590;53.366;5.212;2022-10-22T16:17:20;30.40;;;4.07;;
55692;SDS011;41590;53.366;5.212;2022-10-22T16:22:19;26.58;;;3.47;;
55692;SDS011;41590;53.366;5.212;2022-10-22T16:24:45;20.75;;;3.58;;
55692;SDS011;41590;53.366;5.212;2022-10-22T16:27:16;30.83;;;4.15;;
55692;SDS011;41590;53.366;5.212;2022-10-22T16:29:44;37.30;;;4.22;;
55692;SDS011;41590;53.366;5.212;2022-10-22T16:32:15;24.88;;;3.30;;
55692;SDS011;41590;53.366;5.212;2022-10-22T16:34:52;23.15;;;3.35;;
55692;SDS011;41590;53.366;5.212;2022-10-22T16:39:48;34.28;;;3.50;;
55692;SDS011;41590;53.366;5.212;2022-10-22T16:42:15;24.77;;;3.28;;
55692;SDS011;41590;53.366;5.212;2022-10-22T16:44:48;26.77;;;4.07;;
55692;SDS011;41590;53.366;5.212;2022-10-22T16:47:15;23.75;;;3.60;;
55692;SDS011;41590;53.366;5.212;2022-10-22T16:49:56;25.65;;;3.55;;
55692;SDS011;41590;53.366;5.212;2022-10-22T16:55:15;33.28;;;4.03;;
55692;SDS011;41590;53.366;5.212;2022-10-22T16:57:40;26.02;;;3.90;;
55692;SDS011;41590;53.366;5.212;2022-10-22T17:00:11;29.10;;;4.07;;
55692;SDS011;41590;53.366;5.212;2022-10-22T17:02:38;35.67;;;4.25;;
55692;SDS011;41590;53.366;5.212;2022-10-22T17:05:14;27.48;;;3.88;;
55692;SDS011;41590;53.366;5.212;2022-10-22T17:07:41;36.33;;;3.67;;
55692;SDS011;41590;53.366;5.212;2022-10-22T17:10:08;31.13;;;3.55;;
55692;SDS011;41590;53.366;5.212;2022-10-22T17:12:37;28.20;;;3.33;;
55692;SDS011;41590;53.366;5.212;2022-10-22T17:17:36;31.13;;;3.90;;
55692;SDS011;41590;53.366;5.212;2022-10-22T17:20:03;37.20;;;4.75;;
55692;SDS011;41590;53.366;5.212;2022-10-22T17:22:29;29.20;;;4.00;;
55692;SDS011;41590;53.366;5.212;2022-10-22T17:28:08;32.85;;;4.88;;
55692;SDS011;41590;53.366;5.212;2022-10-22T17:30:35;28.52;;;4.32;;
55692;SDS011;41590;53.366;5.212;2022-10-22T17:33:09;30.02;;;4.68;;
55692;SDS011;41590;53.366;5.212;2022-10-22T17:35:41;31.65;;;3.83;;
55692;SDS011;41590;53.366;5.212;2022-10-22T17:38:09;38.60;;;4.47;;
55692;SDS011;41590;53.366;5.212;2022-10-22T17:40:40;33.53;;;3.45;;
55692;SDS011;41590;53.366;5.212;2022-10-22T17:43:13;30.05;;;3.90;;
55692;SDS011;41590;53.366;5.212;2022-10-22T17:48:29;37.53;;;4.13;;
55692;SDS011;41590;53.366;5.212;2022-10-22T17:51:04;34.83;;;3.70;;
55692;SDS011;41590;53.366;5.212;2022-10-22T17:56:24;39.00;;;3.85;;
55692;SDS011;41590;53.366;5.212;2022-10-22T18:04:06;30.42;;;3.58;;
55692;SDS011;41590;53.366;5.212;2022-10-22T18:06:34;33.30;;;4.38;;
55692;SDS011;41590;53.366;5.212;2022-10-22T18:09:06;39.00;;;4.28;;
55692;SDS011;41590;53.366;5.212;2022-10-22T18:11:46;37.42;;;4.47;;